TimeCST,TemperatureF,Dew PointF,Humidity,Sea Level PressureIn,VisibilityMPH,Wind Direction,Wind SpeedMPH,Gust SpeedMPH,PrecipitationIn,Events,Conditions,WindDirDegrees,DateUTC
12:53 AM,34.0,21.0,59,30.23,10.0,ENE,4.6,-,N/A,,Clear,70,2013-02-02 06:53:00
1:53 AM,33.1,21.9,64,30.22,10.0,ENE,5.8,-,N/A,,Clear,70,2013-02-02 07:53:00
3:53 AM,30.9,23.0,72,30.20,10.0,East,4.6,-,N/A,,Clear,80,2013-02-02 09:53:00
4:53 AM,30.0,23.0,75,30.20,10.0,East,3.5,-,N/A,,Clear,90,2013-02-02 10:53:00
6:53 AM,28.9,25.0,85,30.22,10.0,Calm,Calm,-,N/A,,Clear,0,2013-02-02 12:53:00
7:53 AM,30.9,26.1,82,30.24,10.0,Calm,Calm,-,N/A,,Clear,0,2013-02-02 13:53:00
8:53 AM,37.0,28.0,70,30.25,10.0,Calm,Calm,-,N/A,,Clear,0,2013-02-02 14:53:00
9:53 AM,46.0,30.0,54,30.25,10.0,Calm,Calm,-,N/A,,Clear,0,2013-02-02 15:53:00
10:53 AM,51.1,34.0,52,30.25,10.0,West,5.8,-,N/A,,Clear,270,2013-02-02 16:53:00
11:53 AM,57.0,37.9,49,30.23,10.0,West,6.9,-,N/A,,Clear,280,2013-02-02 17:53:00
12:53 PM,62.1,33.1,34,30.20,10.0,Variable,5.8,16.1,N/A,,Clear,0,2013-02-02 18:53:00
1:53 PM,64.9,32.0,29,30.17,10.0,NNW,9.2,19.6,N/A,,Clear,340,2013-02-02 19:53:00
2:53 PM,66.9,30.9,26,30.17,10.0,NW,6.9,-,N/A,,Clear,320,2013-02-02 20:53:00
3:53 PM,66.0,30.0,26,30.17,10.0,Variable,6.9,-,N/A,,Clear,0,2013-02-02 21:53:00
4:53 PM,64.0,28.0,26,30.18,10.0,NNW,10.4,-,N/A,,Clear,340,2013-02-02 22:53:00
5:53 PM,59.0,30.0,33,30.20,10.0,North,5.8,-,N/A,,Clear,360,2013-02-02 23:53:00
6:53 PM,55.0,30.9,40,30.22,10.0,North,5.8,-,N/A,,Clear,350,2013-02-03 00:53:00
7:53 PM,48.0,32.0,54,30.25,10.0,Calm,Calm,-,N/A,,Clear,0,2013-02-03 01:53:00
8:53 PM,41.0,32.0,70,30.26,10.0,Calm,Calm,-,N/A,,Clear,0,2013-02-03 02:53:00
9:53 PM,39.9,32.0,73,30.27,9.0,Calm,Calm,-,N/A,,Clear,0,2013-02-03 03:53:00
10:53 PM,36.0,33.1,89,30.28,9.0,Calm,Calm,-,N/A,,Clear,0,2013-02-03 04:53:00
11:53 PM,33.1,30.0,89,30.28,10.0,Calm,Calm,-,N/A,,Clear,0,2013-02-03 05:53:00